createdAt,value
2022-11-13T00:03:19.392Z,38.15
2022-11-13T00:08:41.982Z,40.13
2022-11-13T00:14:04.152Z,38.40
2022-11-13T00:19:27.626Z,38.85
2022-11-13T00:24:49.956Z,37.30
2022-11-13T00:30:18.906Z,34.20
2022-11-13T00:35:43.019Z,30.48
2022-11-13T00:41:05.565Z,31.63
2022-11-13T00:46:27.440Z,34.35
2022-11-13T00:51:50.793Z,30.55
2022-11-13T00:57:13.042Z,34.78
2022-11-13T01:02:34.970Z,32.60
2022-11-13T01:07:58.374Z,34.08
2022-11-13T01:13:20.743Z,30.73
2022-11-13T01:18:44.021Z,31.63
2022-11-13T01:24:07.945Z,31.90
2022-11-13T01:29:30.410Z,32.75
2022-11-13T01:34:52.341Z,31.88
2022-11-13T01:40:15.928Z,32.03
2022-11-13T01:46:06.801Z,29.88
2022-11-13T01:51:31.598Z,29.63
2022-11-13T01:56:56.516Z,33.47
2022-11-13T02:02:18.905Z,32.47
2022-11-13T02:07:40.862Z,31.92
2022-11-13T02:13:04.653Z,30.15
2022-11-13T02:18:27.916Z,30.67
2022-11-13T02:23:55.285Z,31.92
2022-11-13T02:29:19.008Z,28.23
2022-11-13T02:34:41.197Z,28.90
2022-11-13T02:40:03.229Z,27.92
2022-11-13T02:45:26.957Z,28.70
2022-11-13T02:50:49.342Z,28.88
2022-11-13T02:56:11.459Z,25.48
2022-11-13T03:01:35.022Z,28.83
2022-11-13T03:06:57.272Z,27.55
2022-11-13T03:12:20.003Z,28.15
2022-11-13T03:17:43.380Z,29.92
2022-11-13T03:23:06.114Z,28.88
2022-11-13T03:28:28.797Z,28.77
2022-11-13T03:33:53.642Z,28.17
2022-11-13T03:39:15.794Z,30.08
2022-11-13T03:44:37.697Z,30.45
2022-11-13T03:50:01.634Z,27.65
2022-11-13T03:55:25.206Z,28.90
2022-11-13T04:00:48.157Z,31.08
2022-11-13T04:06:11.950Z,30.92
2022-11-13T04:11:34.258Z,31.02
2022-11-13T04:16:56.339Z,30.27
2022-11-13T04:22:20.159Z,27.20
2022-11-13T04:27:42.356Z,26.55
2022-11-13T04:33:04.907Z,25.33
2022-11-13T04:38:28.939Z,28.75
2022-11-13T04:43:51.514Z,27.48
2022-11-13T04:49:13.534Z,29.15
2022-11-13T04:54:36.972Z,26.70
2022-11-13T04:59:59.303Z,25.98
2022-11-13T05:05:21.234Z,27.55
2022-11-13T05:10:44.884Z,27.10
2022-11-13T05:16:08.695Z,27.35
2022-11-13T05:21:31.091Z,28.60
2022-11-13T05:26:54.660Z,29.70
2022-11-13T05:32:16.961Z,30.58
2022-11-13T05:37:39.068Z,30.08
2022-11-13T05:43:02.407Z,26.75
2022-11-13T05:48:24.741Z,28.40
2022-11-13T05:53:47.601Z,25.80
2022-11-13T05:59:11.240Z,23.45
2022-11-13T06:04:33.605Z,23.17
2022-11-13T06:09:55.591Z,24.00
2022-11-13T06:15:18.939Z,23.90
2022-11-13T06:20:41.234Z,24.38
2022-11-13T06:26:03.737Z,27.15
2022-11-13T06:31:28.992Z,26.20
2022-11-13T06:36:51.014Z,24.60
2022-11-13T06:42:13.130Z,27.75
2022-11-13T06:47:36.512Z,25.75
2022-11-13T06:52:58.793Z,26.45
2022-11-13T06:58:20.967Z,25.98
2022-11-13T07:03:44.555Z,26.98
2022-11-13T07:09:06.605Z,28.50
2022-11-13T07:14:28.829Z,31.35
2022-11-13T07:19:52.571Z,36.75
2022-11-13T07:25:17.011Z,41.00
2022-11-13T07:30:39.217Z,39.55
2022-11-13T07:36:02.897Z,37.17
2022-11-13T07:41:25.007Z,42.63
2022-11-13T07:46:47.190Z,40.55
2022-11-13T07:52:10.848Z,32.50
2022-11-13T07:57:32.797Z,32.63
2022-11-13T08:02:55.216Z,31.75
2022-11-13T08:08:18.899Z,32.45
2022-11-13T08:13:41.150Z,29.20
2022-11-13T08:19:03.613Z,30.92
2022-11-13T08:24:27.241Z,26.20
2022-11-13T08:29:49.581Z,27.42
2022-11-13T08:35:14.802Z,26.35
2022-11-13T08:40:42.354Z,30.60
2022-11-13T08:46:04.593Z,24.02
2022-11-13T08:51:26.629Z,22.90
2022-11-13T08:56:55.850Z,23.60
2022-11-13T09:02:19.337Z,27.55
2022-11-13T09:07:41.287Z,21.48
2022-11-13T09:13:06.092Z,23.23
2022-11-13T09:18:29.284Z,23.63
2022-11-13T09:23:52.069Z,24.83
2022-11-13T09:29:15.741Z,23.73
2022-11-13T09:34:37.813Z,24.60
2022-11-13T09:40:00.147Z,20.70
2022-11-13T09:45:24.290Z,23.15
2022-11-13T09:50:46.542Z,21.25
2022-11-13T09:56:19.994Z,23.27
2022-11-13T10:01:51.069Z,23.80
2022-11-13T10:07:26.263Z,19.80
2022-11-13T10:12:50.531Z,19.52
2022-11-13T10:18:18.007Z,18.27
2022-11-13T10:23:40.550Z,20.83
2022-11-13T10:29:10.037Z,16.50
2022-11-13T10:34:34.395Z,18.90
2022-11-13T10:39:56.471Z,19.02
2022-11-13T10:45:20.985Z,21.00
2022-11-13T10:50:44.450Z,19.52
2022-11-13T10:56:15.616Z,17.83
2022-11-13T11:01:37.757Z,18.52
2022-11-13T11:07:19.649Z,19.45
2022-11-13T11:12:43.032Z,19.25
2022-11-13T11:18:08.150Z,17.17
2022-11-13T11:23:38.730Z,16.20
2022-11-13T11:29:07.534Z,18.25
2022-11-13T11:34:34.505Z,17.13
2022-11-13T11:40:02.694Z,14.93
2022-11-13T11:45:27.371Z,16.73
2022-11-13T11:50:55.604Z,13.60
2022-11-13T11:56:25.020Z,16.73
2022-11-13T12:02:22.098Z,19.63
2022-11-13T12:07:51.409Z,17.63
2022-11-13T12:13:29.463Z,16.58
2022-11-13T12:18:57.306Z,16.58
2022-11-13T12:24:37.706Z,14.80
2022-11-13T12:30:10.963Z,18.20
2022-11-13T12:35:33.265Z,19.50
2022-11-13T12:40:59.013Z,22.83
2022-11-13T12:51:55.491Z,12.70
2022-11-13T12:57:23.451Z,19.58
2022-11-13T13:03:10.003Z,13.40
2022-11-13T13:08:56.060Z,11.80
2022-11-13T13:14:31.821Z,15.57
2022-11-13T13:20:04.221Z,13.63
2022-11-13T13:25:27.946Z,14.45
2022-11-13T13:31:02.417Z,15.15
2022-11-13T13:36:34.209Z,13.57
2022-11-13T13:42:16.378Z,16.95
2022-11-13T13:47:40.301Z,17.30
2022-11-13T13:53:04.101Z,23.45
2022-11-13T13:58:29.447Z,16.73
2022-11-13T14:04:04.679Z,28.57
2022-11-13T14:09:29.354Z,20.60
2022-11-13T14:14:51.571Z,23.13
2022-11-13T14:20:14.227Z,27.23
2022-11-13T14:25:38.214Z,29.02
2022-11-13T14:31:02.560Z,29.95
2022-11-13T14:36:30.057Z,28.77
2022-11-13T14:41:56.122Z,26.58
2022-11-13T14:47:24.199Z,25.27
2022-11-13T14:52:57.156Z,29.13
2022-11-13T14:58:29.831Z,33.35
2022-11-13T15:03:53.374Z,39.70
2022-11-13T15:09:17.797Z,46.83
2022-11-13T15:14:42.880Z,42.30
2022-11-13T15:20:09.682Z,44.63
2022-11-13T15:25:32.319Z,41.78
2022-11-13T15:30:55.977Z,42.80
2022-11-13T15:36:18.259Z,44.28
2022-11-13T15:41:41.050Z,46.70
2022-11-13T15:47:04.631Z,44.50
2022-11-13T15:52:28.320Z,40.22
2022-11-13T15:57:50.506Z,43.58
2022-11-13T16:03:14.127Z,38.78
2022-11-13T16:08:36.487Z,42.13
2022-11-13T16:13:58.600Z,39.67
2022-11-13T16:19:25.809Z,39.65
2022-11-13T16:24:48.248Z,38.03
2022-11-13T16:30:16.390Z,41.67
2022-11-13T16:35:40.423Z,39.00
2022-11-13T16:41:02.797Z,40.78
2022-11-13T16:46:28.088Z,41.80
2022-11-13T16:51:52.155Z,40.70
2022-11-13T16:57:16.490Z,40.83
2022-11-13T17:02:38.679Z,40.20
2022-11-13T17:08:02.141Z,44.13
2022-11-13T17:13:24.452Z,42.60
2022-11-13T17:18:48.232Z,42.50
2022-11-13T17:24:11.687Z,44.92
2022-11-13T17:29:34.652Z,44.88
2022-11-13T17:34:57.284Z,43.67
2022-11-13T17:40:21.456Z,43.63
2022-11-13T17:45:43.984Z,41.53
2022-11-13T17:51:07.953Z,39.88
2022-11-13T17:56:31.823Z,40.28
2022-11-13T18:01:54.001Z,40.25
2022-11-13T18:07:16.481Z,39.38
2022-11-13T18:12:40.201Z,38.25
2022-11-13T18:18:02.356Z,39.65
2022-11-13T18:23:24.979Z,39.30
2022-11-13T18:28:48.528Z,41.00
2022-11-13T18:34:17.862Z,40.03
2022-11-13T18:39:40.438Z,40.17
2022-11-13T18:45:06.195Z,38.65
2022-11-13T18:50:28.716Z,36.40
2022-11-13T18:55:51.305Z,35.55
2022-11-13T19:01:21.807Z,37.47
2022-11-13T19:06:44.974Z,37.05
2022-11-13T19:12:08.186Z,35.85
2022-11-13T19:17:31.818Z,37.28
2022-11-13T19:22:54.094Z,35.67
2022-11-13T19:28:16.123Z,35.72
2022-11-13T19:33:39.945Z,37.22
2022-11-13T19:39:02.230Z,35.90
2022-11-13T19:44:24.200Z,42.55
2022-11-13T19:49:47.470Z,39.05
2022-11-13T19:55:10.378Z,42.38
2022-11-13T20:00:32.375Z,39.83
2022-11-13T20:05:59.423Z,43.63
2022-11-13T20:16:43.545Z,39.25
2022-11-13T20:22:07.469Z,38.22
2022-11-13T20:27:29.796Z,40.70
2022-11-13T20:32:52.420Z,40.65
2022-11-13T20:38:16.189Z,44.85
2022-11-13T20:43:39.624Z,43.55
2022-11-13T20:49:02.258Z,45.78
2022-11-13T20:54:25.990Z,46.65
2022-11-13T20:59:48.042Z,53.40
2022-11-13T21:05:10.393Z,48.70
2022-11-13T21:10:34.804Z,50.65
2022-11-13T21:15:57.393Z,56.85
2022-11-13T21:21:20.876Z,60.42
2022-11-13T21:26:46.437Z,62.50
2022-11-13T21:32:08.674Z,67.53
2022-11-13T21:37:33.282Z,69.28
2022-11-13T21:42:57.534Z,60.17
2022-11-13T21:48:19.910Z,57.75
2022-11-13T21:53:43.609Z,62.75
2022-11-13T21:59:07.593Z,59.97
2022-11-13T22:04:29.889Z,62.38
2022-11-13T22:09:51.953Z,67.53
2022-11-13T22:15:15.368Z,75.32
2022-11-13T22:20:37.682Z,78.13
2022-11-13T22:26:03.727Z,72.88
2022-11-13T22:31:29.952Z,76.88
2022-11-13T22:36:52.034Z,67.85
2022-11-13T22:42:14.666Z,67.00
2022-11-13T22:47:38.204Z,52.90
2022-11-13T22:53:00.737Z,54.55
2022-11-13T22:58:22.704Z,47.70
2022-11-13T23:03:47.784Z,42.10
2022-11-13T23:09:10.497Z,44.70
2022-11-13T23:14:32.501Z,44.03
2022-11-13T23:19:56.645Z,40.55
2022-11-13T23:25:19.383Z,38.85
2022-11-13T23:30:41.987Z,39.95
2022-11-13T23:36:06.312Z,42.17
2022-11-13T23:41:28.933Z,40.97
2022-11-13T23:46:50.958Z,39.20
2022-11-13T23:52:14.601Z,43.35
2022-11-13T23:57:36.753Z,48.60
